Pagina principale
METAR-TAF:

METAR-TAF

Aeroporti :

Le Touquet, Francia

latitudine: 50-30-53N, longitudine: 001-37-39E, altezza: 6 m

Osservazione

Il bollettino è stato emesso 39 minuti fa, alle 11:30 UTC
Vento 4 kt da ovest/sud-ovest, variando fra sud/sud-ovest e ovest
Temperature 19°C
Umidità 88%
Pressione 1018 hPa
Visibilità 10 km o più
nessuna nube inferiore a 1500 m e nessun cumulonembo

METAR: LFAT 241130Z AUTO 24004KT 210V280 CAVOK 19/17 Q1018 NOSIG

Ora: 14:09 (12:09 UTC)

Previsione

Il bollettino è stato emesso 1 ora e 9 minuti fa, alle 11:00 UTC
Previsione valida dal 24 alle 12 UTC al 24 alle 21 UTC
Vento 8 kt da ovest
Visibilità 10 km o più
nessuna nube inferiore a 1500 m e nessun cumulonembo

TAF: LFAT 241100Z 2412/2421 28008KT CAVOK

Osservazioni e previsioni meteorologiche di più di 4000 aeroporti (messaggi METAR e TAF).

Le stazioni disponibili sono rappresentate dai dischi gialli e rossi sulla carta.

Puntare il mouse per vedere il nome della stazione.

Clicca sopra per visualizzare le osservazioni e previsioni meteorologiche.

Per cambiare la mappa : fare clic sui pulsanti verdi con una croce nera per ingrandire, il pulsante verde con un trattino per diminuire, o sulla freccia verde per le mappe adiacenti.


METAR-TAF: